首页
METAR-TAF:

METAR-TAF

机场 :

蘇聖瑪麗, 安大略省, 加拿大

纬度: 46-29N, 经度: 084-30W, 海拔: 187米

当前天气观测

该预报发布于43分钟前的11:00 UTC
风速4节,风向东北
温度 15°C
湿度 88%
气压 1014 hPa
能見度: 40.2公里
少量云层高于3600英尺
多云层高于5600英尺
多云层高于8100英尺
多云层高于12000英尺

METAR: CYAM 011100Z 05004KT 25SM FEW036 BKN056 BKN081 BKN120 15/13 A2993 RMK CU1CU5ACC1AC1 CU TR SLP139 DENSITY ALT 800FT

时间: 07:43 (11:43 UTC)

预报

该预报发布于4小时和4分钟前的07:39 UTC
预报有效从01日的 08点(UTC)到 01日的 20点(UTC)
风速8节,风向西北
能見度: 10公里
少量云层高于800英尺
散云层高于3000英尺
多云层高于10000英尺
短暂存在
从 01日的 08点(UTC)到 01日的 12点(UTC)
能見度: 8.0公里
多云层高于800英尺
阴天层高于3000英尺
小阵雨, 轻雾
从 01日的 1200点(UTC)
风速8节,风向北转东北
能見度: 10公里
少量云层高于1500英尺
散云层高于3000英尺
多云层高于6000英尺
短暂存在
从 01日的 12点(UTC)到 01日的 15点(UTC)
能見度: 10公里
多云层高于1500英尺
阴天层高于3000英尺
小阵雨
从 01日的 1500点(UTC)
风速12节,风向北转东北
能見度: 10公里
多云层高于3000英尺
短暂存在
从 01日的 15点(UTC)到 01日的 20点(UTC)
能見度: 10公里
小阵雨
成为
从 01日的 16点(UTC)到 01日的 18点(UTC)
风速10节,风向西北

TAF: CYAM 010739Z 0108/0120 32008KT P6SM FEW008 SCT030 BKN100 TEMPO 0108/0112 5SM -SHRA BR BKN008 OVC030 FM011200 02008KT P6SM FEW015 SCT030 BKN060 TEMPO 0112/0115 P6SM -SHRA BKN015 OVC030 FM011500 02012KT P6SM BKN030 TEMPO 0115/0120 P6SM -SHRA BECMG 0116/0118 32010KT RMK NXT FCST BY 011400Z

超过4000个机场的气象观测和天气预报(METAR&TAF报告)。

可查询的气象台以黄色和红色小点在地图上表示。

将鼠标移到小点上方,可查看气象台名称。

然后点击查看天气观测和预报。

如需切换地图:点击带黑十字的绿色按钮放大地图;点击带横线的绿色按钮缩小地图;或者点击绿色箭头查看邻近地区的地图。


METAR-TAF: